createdAt,value
2022-11-05T00:00:54.938Z,3.82
2022-11-05T00:01:55.795Z,3.85
2022-11-05T00:02:56.112Z,3.85
2022-11-05T00:03:54.975Z,3.83
2022-11-05T00:04:54.943Z,3.80
2022-11-05T00:05:54.860Z,3.79
2022-11-05T00:06:55.041Z,3.72
2022-11-05T00:07:54.858Z,3.71
2022-11-05T00:08:55.034Z,3.71
2022-11-05T00:09:55.956Z,3.71
2022-11-05T00:10:54.831Z,3.72
2022-11-05T00:11:54.804Z,3.71
2022-11-05T00:12:54.813Z,3.71
2022-11-05T00:13:54.811Z,3.79
2022-11-05T00:14:54.785Z,3.89
2022-11-05T00:15:54.795Z,3.92
2022-11-05T00:16:55.035Z,3.96
2022-11-05T00:17:54.722Z,3.96
2022-11-05T00:18:54.711Z,3.94
2022-11-05T00:19:54.684Z,4.03
2022-11-05T00:20:55.034Z,4.06
2022-11-05T00:21:54.743Z,4.19
2022-11-05T00:22:54.904Z,4.26
2022-11-05T00:23:54.666Z,4.32
2022-11-05T00:24:54.675Z,4.32
2022-11-05T00:25:54.823Z,4.34
2022-11-05T00:26:55.855Z,4.37
2022-11-05T00:27:54.589Z,4.39
2022-11-05T00:28:54.608Z,4.42
2022-11-05T00:29:55.530Z,4.39
2022-11-05T00:30:54.713Z,4.37
2022-11-05T00:31:54.842Z,4.36
2022-11-05T00:32:54.664Z,4.37
2022-11-05T00:33:54.519Z,4.37
2022-11-05T00:34:54.516Z,4.39
2022-11-05T00:35:54.532Z,4.40
2022-11-05T00:36:55.418Z,4.42
2022-11-05T00:37:54.538Z,4.46
2022-11-05T00:38:55.217Z,4.46
2022-11-05T00:39:54.455Z,4.44
2022-11-05T00:40:54.459Z,4.55
2022-11-05T00:41:55.444Z,4.61
2022-11-05T00:42:54.408Z,4.69
2022-11-05T00:43:54.378Z,4.70
2022-11-05T00:44:54.427Z,4.72
2022-11-05T00:45:54.382Z,4.73
2022-11-05T00:46:59.619Z,4.77
2022-11-05T00:47:55.541Z,4.89
2022-11-05T00:48:54.319Z,4.95
2022-11-05T00:49:55.245Z,5.01
2022-11-05T00:50:54.288Z,5.07
2022-11-05T00:51:54.358Z,5.19
2022-11-05T00:52:54.589Z,5.22
2022-11-05T00:53:54.527Z,5.20
2022-11-05T00:54:54.258Z,5.19
2022-11-05T00:55:54.749Z,5.20
2022-11-05T00:56:54.969Z,5.17
2022-11-05T00:57:54.254Z,5.13
2022-11-05T00:58:54.194Z,5.05
2022-11-05T00:59:54.705Z,5.01
2022-11-05T01:00:54.301Z,5.07
2022-11-05T01:01:54.309Z,5.13
2022-11-05T01:02:54.245Z,5.14
2022-11-05T01:03:54.169Z,5.12
2022-11-05T01:04:54.087Z,5.04
2022-11-05T01:05:54.080Z,4.96
2022-11-05T01:06:55.089Z,4.96
2022-11-05T01:07:54.736Z,5.05
2022-11-05T01:08:54.160Z,5.13
2022-11-05T01:09:54.431Z,5.17
2022-11-05T01:10:54.098Z,5.14
2022-11-05T01:11:55.580Z,5.13
2022-11-05T01:12:53.990Z,5.14
2022-11-05T01:13:54.040Z,5.12
2022-11-05T01:14:53.969Z,5.10
2022-11-05T01:15:53.980Z,5.04
2022-11-05T01:16:54.957Z,4.98
2022-11-05T01:17:53.960Z,4.92
2022-11-05T01:18:54.009Z,4.88
2022-11-05T01:19:53.908Z,4.84
2022-11-05T01:20:54.349Z,4.88
2022-11-05T01:21:54.371Z,4.88
2022-11-05T01:22:53.993Z,4.84
2022-11-05T01:23:53.871Z,4.77
2022-11-05T01:24:53.913Z,4.75
2022-11-05T01:25:53.880Z,4.70
2022-11-05T01:26:54.073Z,4.67
2022-11-05T01:27:53.814Z,4.62
2022-11-05T01:28:53.872Z,4.59
2022-11-05T01:29:54.175Z,4.55
2022-11-05T01:30:54.831Z,4.52
2022-11-05T01:31:53.791Z,4.52
2022-11-05T01:32:53.841Z,4.50
2022-11-05T01:33:54.555Z,4.46
2022-11-05T01:34:54.965Z,4.37
2022-11-05T01:35:53.732Z,4.28
2022-11-05T01:36:54.772Z,4.22
2022-11-05T01:37:53.672Z,4.19
2022-11-05T01:38:53.652Z,4.14
2022-11-05T01:39:53.659Z,4.08
2022-11-05T01:40:53.748Z,4.03
2022-11-05T01:41:53.644Z,3.98
2022-11-05T01:42:53.650Z,3.92
2022-11-05T01:43:53.640Z,3.80
2022-11-05T01:44:53.594Z,3.75
2022-11-05T01:45:53.620Z,3.70
2022-11-05T01:46:54.566Z,3.65
2022-11-05T01:47:54.634Z,3.62
2022-11-05T01:48:57.276Z,3.58
2022-11-05T01:49:54.576Z,3.53
2022-11-05T01:50:54.454Z,3.49
2022-11-05T01:51:53.535Z,3.47
2022-11-05T01:52:53.494Z,3.46
2022-11-05T01:53:53.495Z,3.43
2022-11-05T01:54:53.508Z,3.39
2022-11-05T01:55:53.457Z,3.39
2022-11-05T01:56:54.465Z,3.33
2022-11-05T01:57:53.557Z,3.30
2022-11-05T01:58:54.196Z,3.28
2022-11-05T01:59:53.425Z,3.28
2022-11-05T02:00:53.398Z,3.28
2022-11-05T02:01:53.646Z,3.24
2022-11-05T02:02:53.567Z,3.27
2022-11-05T02:03:54.225Z,3.28
2022-11-05T02:04:53.357Z,3.25
2022-11-05T02:05:53.365Z,3.21
2022-11-05T02:06:53.341Z,3.20
2022-11-05T02:07:53.665Z,3.16
2022-11-05T02:08:53.278Z,3.15
2022-11-05T02:09:53.369Z,3.12
2022-11-05T02:10:54.222Z,3.10
2022-11-05T02:11:53.330Z,3.06
2022-11-05T02:12:53.269Z,3.00
2022-11-05T02:13:53.216Z,2.97
2022-11-05T02:14:53.212Z,2.92
2022-11-05T02:15:53.191Z,2.88
2022-11-05T02:16:53.188Z,2.87
2022-11-05T02:17:53.158Z,2.82
2022-11-05T02:18:53.177Z,2.77
2022-11-05T02:19:53.141Z,2.76
2022-11-05T02:20:53.135Z,2.74
2022-11-05T02:21:53.129Z,2.74
2022-11-05T02:22:53.128Z,2.71
2022-11-05T02:23:54.357Z,2.69
2022-11-05T02:24:53.196Z,2.66
2022-11-05T02:25:53.211Z,2.61
2022-11-05T02:26:53.097Z,2.63
2022-11-05T02:27:53.078Z,2.63
2022-11-05T02:28:53.540Z,2.59
2022-11-05T02:29:53.190Z,2.56
2022-11-05T02:30:53.022Z,2.53
2022-11-05T02:31:53.111Z,2.51
2022-11-05T02:32:52.977Z,2.46
2022-11-05T02:33:52.990Z,2.41
2022-11-05T02:34:53.809Z,2.37
2022-11-05T02:35:52.959Z,2.34
2022-11-05T02:36:53.472Z,2.33
2022-11-05T02:37:52.928Z,2.30
2022-11-05T02:38:52.896Z,2.28
2022-11-05T02:39:52.871Z,2.27
2022-11-05T02:40:52.871Z,2.30
2022-11-05T02:41:52.891Z,2.26
2022-11-05T02:42:52.882Z,2.27
2022-11-05T02:43:52.863Z,2.26
2022-11-05T02:44:52.811Z,2.23
2022-11-05T02:45:52.839Z,2.20
2022-11-05T02:46:52.873Z,2.19
2022-11-05T02:47:52.894Z,2.16
2022-11-05T02:48:52.760Z,2.16
2022-11-05T02:49:53.905Z,2.13
2022-11-05T02:50:52.762Z,2.09
2022-11-05T02:51:52.722Z,2.08
2022-11-05T02:52:53.059Z,2.04
2022-11-05T02:53:52.732Z,2.02
2022-11-05T02:54:52.755Z,2.01
2022-11-05T02:55:52.693Z,1.99
2022-11-05T02:56:53.352Z,1.97
2022-11-05T02:57:52.660Z,1.97
2022-11-05T02:58:52.704Z,1.94
2022-11-05T02:59:52.658Z,1.93
2022-11-05T03:00:52.615Z,1.90
2022-11-05T03:01:52.756Z,1.87
2022-11-05T03:02:52.999Z,1.85
2022-11-05T03:03:52.689Z,1.82
2022-11-05T03:04:52.553Z,1.79
2022-11-05T03:05:52.575Z,1.78
2022-11-05T03:06:53.505Z,1.75
2022-11-05T03:07:52.514Z,1.75
2022-11-05T03:08:52.522Z,1.76
2022-11-05T03:09:52.527Z,1.76
2022-11-05T03:10:52.574Z,1.76
2022-11-05T03:11:52.472Z,1.76
2022-11-05T03:12:52.511Z,1.75
2022-11-05T03:13:52.465Z,1.71
2022-11-05T03:14:52.431Z,1.73
2022-11-05T03:15:52.538Z,1.72
2022-11-05T03:16:52.465Z,1.72
2022-11-05T03:17:52.466Z,1.75
2022-11-05T03:18:52.411Z,1.76
2022-11-05T03:19:52.390Z,1.72
2022-11-05T03:20:52.345Z,1.76
2022-11-05T03:21:52.358Z,1.76
2022-11-05T03:22:52.326Z,1.75
2022-11-05T03:23:52.382Z,1.73
2022-11-05T03:24:52.333Z,1.69
2022-11-05T03:25:52.367Z,1.68
2022-11-05T03:26:52.372Z,1.65
2022-11-05T03:27:52.502Z,1.64
2022-11-05T03:28:52.306Z,1.62
2022-11-05T03:29:52.750Z,1.62
2022-11-05T03:30:52.262Z,1.61
2022-11-05T03:31:52.254Z,1.60
2022-11-05T03:32:52.227Z,1.57
2022-11-05T03:33:52.267Z,1.52
2022-11-05T03:34:52.165Z,1.50
2022-11-05T03:35:52.186Z,1.46
2022-11-05T03:36:52.155Z,1.43
2022-11-05T03:37:52.299Z,1.39
2022-11-05T03:38:52.132Z,1.36
2022-11-05T03:39:52.181Z,1.34
2022-11-05T03:40:53.115Z,1.33
2022-11-05T03:41:52.166Z,1.32
2022-11-05T03:42:52.068Z,1.34
2022-11-05T03:43:52.099Z,1.34
2022-11-05T03:44:52.126Z,1.34
2022-11-05T03:45:52.112Z,1.33
2022-11-05T03:46:52.082Z,1.34
2022-11-05T03:47:52.006Z,1.36
2022-11-05T03:48:52.190Z,1.37
2022-11-05T03:49:52.180Z,1.36
2022-11-05T03:50:52.020Z,1.36
2022-11-05T03:51:52.049Z,1.34
2022-11-05T03:52:51.950Z,1.32
2022-11-05T03:53:52.877Z,1.29
2022-11-05T03:54:52.017Z,1.28
2022-11-05T03:55:51.945Z,1.26
2022-11-05T03:56:53.346Z,1.25
2022-11-05T03:57:51.886Z,1.22
2022-11-05T03:58:57.561Z,1.24
2022-11-05T03:59:53.845Z,1.22
2022-11-05T04:00:51.853Z,1.22
2022-11-05T04:01:51.993Z,1.19
2022-11-05T04:02:51.895Z,1.16
2022-11-05T04:03:51.810Z,1.15
2022-11-05T04:04:51.818Z,1.14
2022-11-05T04:05:52.771Z,1.14
2022-11-05T04:06:51.947Z,1.25
2022-11-05T04:07:51.841Z,1.34
2022-11-05T04:08:51.872Z,1.42
2022-11-05T04:09:51.780Z,1.42
2022-11-05T04:10:51.723Z,1.43
2022-11-05T04:11:51.809Z,1.55
2022-11-05T04:12:51.779Z,1.61
2022-11-05T04:13:51.730Z,1.69
2022-11-05T04:14:51.676Z,1.72
2022-11-05T04:15:51.682Z,1.71
2022-11-05T04:16:51.669Z,1.65
2022-11-05T04:17:51.742Z,1.61
2022-11-05T04:18:51.897Z,1.55
2022-11-05T04:19:51.590Z,1.54
2022-11-05T04:20:51.658Z,1.44
2022-11-05T04:21:51.600Z,1.42
2022-11-05T04:22:51.591Z,1.43
2022-11-05T04:23:51.562Z,1.37
2022-11-05T04:24:51.532Z,1.33
2022-11-05T04:25:51.573Z,1.33
2022-11-05T04:26:51.529Z,1.32
2022-11-05T04:27:51.534Z,1.28
2022-11-05T04:28:51.522Z,1.26
2022-11-05T04:29:51.479Z,1.25
2022-11-05T04:30:51.541Z,1.25
2022-11-05T04:31:52.305Z,1.25
2022-11-05T04:32:51.453Z,1.22
2022-11-05T04:33:51.422Z,1.19
2022-11-05T04:34:51.440Z,1.16
2022-11-05T04:35:51.424Z,1.15
2022-11-05T04:36:51.443Z,1.14
2022-11-05T04:37:51.373Z,1.10
2022-11-05T04:38:51.513Z,1.04
2022-11-05T04:39:51.342Z,1.03
2022-11-05T04:40:51.352Z,1.01
2022-11-05T04:41:51.333Z,0.98
2022-11-05T04:42:51.329Z,0.98
2022-11-05T04:43:51.380Z,0.97
2022-11-05T04:44:51.833Z,0.92
2022-11-05T04:45:51.281Z,0.92
2022-11-05T04:46:51.301Z,0.90
2022-11-05T04:47:52.205Z,0.92
2022-11-05T04:48:51.440Z,0.94
2022-11-05T04:49:51.212Z,0.94
2022-11-05T04:50:51.321Z,0.92
2022-11-05T04:51:51.236Z,0.89
2022-11-05T04:52:51.184Z,0.90
2022-11-05T04:53:51.203Z,0.90
2022-11-05T04:54:51.254Z,0.90
2022-11-05T04:55:51.635Z,0.88
2022-11-05T04:56:51.477Z,0.88
2022-11-05T04:57:51.203Z,0.89
2022-11-05T04:58:51.134Z,0.92
2022-11-05T04:59:51.183Z,0.92
2022-11-05T05:00:51.140Z,0.94
2022-11-05T05:01:52.043Z,0.94
2022-11-05T05:02:51.075Z,0.90
2022-11-05T05:03:51.023Z,0.92
2022-11-05T05:04:51.053Z,1.04
2022-11-05T05:05:53.802Z,1.10
2022-11-05T05:06:51.092Z,1.15
2022-11-05T05:07:51.938Z,1.14
2022-11-05T05:08:51.306Z,1.08
2022-11-05T05:09:51.029Z,1.08
2022-11-05T05:10:51.044Z,1.07
2022-11-05T05:11:50.985Z,1.01
2022-11-05T05:12:50.935Z,0.96
2022-11-05T05:13:50.904Z,0.92
2022-11-05T05:14:50.883Z,0.90
2022-11-05T05:15:51.018Z,0.85
2022-11-05T05:16:51.064Z,0.82
2022-11-05T05:17:50.899Z,0.78
2022-11-05T05:18:50.861Z,0.72
2022-11-05T05:19:50.866Z,0.70
2022-11-05T05:20:50.877Z,0.70
2022-11-05T05:21:50.919Z,0.65
2022-11-05T05:22:50.784Z,0.64
2022-11-05T05:23:50.808Z,0.62
2022-11-05T05:24:52.942Z,0.62
2022-11-05T05:25:50.793Z,0.64
2022-11-05T05:26:51.631Z,0.64
2022-11-05T05:27:50.773Z,0.61
2022-11-05T05:28:50.757Z,0.60
2022-11-05T05:29:50.779Z,0.60
2022-11-05T05:30:53.636Z,0.60
2022-11-05T05:31:51.723Z,0.60
2022-11-05T05:32:50.675Z,0.57
2022-11-05T05:33:50.667Z,0.57
2022-11-05T05:34:50.687Z,0.57
2022-11-05T05:35:51.410Z,0.58
2022-11-05T05:36:51.699Z,0.58
2022-11-05T05:37:50.628Z,0.53
2022-11-05T05:38:50.595Z,0.57
2022-11-05T05:39:50.608Z,0.53
2022-11-05T05:40:50.678Z,0.53
2022-11-05T05:41:50.598Z,0.51
2022-11-05T05:42:50.748Z,0.48
2022-11-05T05:43:50.569Z,0.52
2022-11-05T05:44:50.588Z,0.52
2022-11-05T05:45:50.499Z,0.51
2022-11-05T05:46:50.880Z,0.49
2022-11-05T05:47:51.061Z,0.49
2022-11-05T05:48:50.848Z,0.51
2022-11-05T05:49:50.468Z,0.48
2022-11-05T05:50:50.509Z,0.46
2022-11-05T05:51:50.438Z,0.49
2022-11-05T05:52:50.398Z,0.48
2022-11-05T05:53:50.450Z,0.49
2022-11-05T05:54:50.374Z,0.49
2022-11-05T05:55:50.385Z,0.52
2022-11-05T05:56:51.309Z,0.53
2022-11-05T05:57:50.424Z,0.53
2022-11-05T05:58:50.372Z,0.49
2022-11-05T05:59:50.367Z,0.49
2022-11-05T06:00:51.440Z,0.52
2022-11-05T06:01:50.573Z,0.52
2022-11-05T06:02:50.451Z,0.52
2022-11-05T06:03:50.290Z,0.57
2022-11-05T06:04:50.280Z,0.58
2022-11-05T06:05:50.338Z,0.61
2022-11-05T06:06:51.381Z,0.62
2022-11-05T06:07:50.382Z,0.61
2022-11-05T06:08:50.291Z,0.61
2022-11-05T06:09:50.211Z,0.61
2022-11-05T06:10:50.275Z,0.62
2022-11-05T06:11:50.229Z,0.61
2022-11-05T06:12:50.229Z,0.60
2022-11-05T06:13:50.151Z,0.61
2022-11-05T06:14:50.151Z,0.60
2022-11-05T06:15:50.124Z,0.58
2022-11-05T06:16:50.194Z,0.60
2022-11-05T06:17:50.100Z,0.58
2022-11-05T06:18:50.104Z,0.61
2022-11-05T06:19:50.087Z,0.62
2022-11-05T06:20:50.042Z,0.64
2022-11-05T06:21:50.041Z,0.67
2022-11-05T06:22:50.083Z,0.68
2022-11-05T06:23:50.041Z,0.71
2022-11-05T06:24:50.136Z,0.75
2022-11-05T06:25:49.981Z,0.72
2022-11-05T06:26:49.973Z,0.71
2022-11-05T06:27:49.979Z,0.76
2022-11-05T06:28:50.064Z,0.78
2022-11-05T06:29:50.882Z,0.79
2022-11-05T06:30:49.995Z,0.80
2022-11-05T06:31:49.954Z,0.83
2022-11-05T06:32:49.886Z,0.89
2022-11-05T06:33:49.887Z,0.90
2022-11-05T06:34:49.896Z,0.94
2022-11-05T06:35:49.890Z,0.89
2022-11-05T06:36:49.919Z,0.89
2022-11-05T06:37:49.831Z,0.88
2022-11-05T06:38:49.959Z,0.86
2022-11-05T06:39:49.834Z,0.83
2022-11-05T06:40:49.807Z,0.83
2022-11-05T06:42:16.464Z,0.82
2022-11-05T06:42:50.763Z,0.83
2022-11-05T06:43:49.891Z,0.79
2022-11-05T06:44:49.752Z,0.78
2022-11-05T06:45:49.721Z,0.78
2022-11-05T06:46:49.859Z,0.78
2022-11-05T06:47:49.700Z,0.78
2022-11-05T06:48:49.714Z,0.86
2022-11-05T06:49:49.942Z,0.90
2022-11-05T06:50:49.732Z,0.98
2022-11-05T06:51:49.732Z,1.01
2022-11-05T06:52:49.667Z,1.06
2022-11-05T06:53:49.711Z,1.07
2022-11-05T06:54:49.652Z,1.07
2022-11-05T06:55:49.695Z,1.08
2022-11-05T06:56:49.684Z,1.15
2022-11-05T06:57:49.601Z,1.25
2022-11-05T06:58:49.583Z,1.37
2022-11-05T07:00:56.708Z,1.52
2022-11-05T07:01:56.691Z,1.55
2022-11-05T07:02:56.511Z,1.54
2022-11-05T07:03:56.569Z,1.54
2022-11-05T07:04:56.641Z,1.58
2022-11-05T07:05:57.496Z,1.68
2022-11-05T07:06:56.494Z,1.75
2022-11-05T07:07:56.479Z,1.78
2022-11-05T07:08:56.452Z,1.78
2022-11-05T07:09:56.454Z,1.83
2022-11-05T07:10:56.512Z,1.87
2022-11-05T07:11:57.423Z,1.87
2022-11-05T07:12:56.415Z,1.91
2022-11-05T07:13:56.684Z,1.94
2022-11-05T07:14:56.384Z,2.01
2022-11-05T07:15:56.430Z,2.06
2022-11-05T07:16:57.453Z,2.12
2022-11-05T07:17:56.304Z,2.16
2022-11-05T07:18:56.306Z,2.22
2022-11-05T07:19:56.297Z,2.30
2022-11-05T07:20:56.364Z,2.34
2022-11-05T07:21:56.256Z,2.41
2022-11-05T07:22:56.254Z,2.49
2022-11-05T07:23:57.233Z,2.55
2022-11-05T07:24:56.275Z,2.61
2022-11-05T07:25:56.277Z,2.73
2022-11-05T07:26:56.623Z,2.91
2022-11-05T07:27:56.222Z,3.00
2022-11-05T07:28:57.325Z,3.16
2022-11-05T07:29:56.175Z,3.24
2022-11-05T07:30:56.758Z,3.28
2022-11-05T07:31:57.039Z,3.39
2022-11-05T07:32:56.257Z,3.42
2022-11-05T07:33:56.331Z,3.54
2022-11-05T07:34:56.116Z,3.65
2022-11-05T07:35:56.114Z,3.68
2022-11-05T07:36:57.040Z,3.70
2022-11-05T07:37:56.075Z,3.71
2022-11-05T07:39:00.083Z,3.78
2022-11-05T07:39:56.075Z,3.89
2022-11-05T07:40:56.078Z,3.98
2022-11-05T07:41:56.006Z,4.04
2022-11-05T07:42:56.072Z,4.16
2022-11-05T07:43:56.023Z,4.22
2022-11-05T07:44:56.038Z,4.37
2022-11-05T07:45:55.976Z,4.42
2022-11-05T07:46:56.265Z,4.43
2022-11-05T07:47:55.987Z,4.51
2022-11-05T07:48:55.949Z,4.51
2022-11-05T07:49:55.927Z,4.51
2022-11-05T07:50:55.942Z,4.57
2022-11-05T07:51:55.915Z,4.64
2022-11-05T07:52:55.929Z,4.76
2022-11-05T07:53:55.938Z,4.77
2022-11-05T07:54:55.917Z,4.76
2022-11-05T07:55:55.861Z,4.75
2022-11-05T07:56:55.847Z,4.73
2022-11-05T07:57:55.856Z,4.77
2022-11-05T07:58:55.850Z,4.80
2022-11-05T07:59:55.788Z,4.84
2022-11-05T08:00:55.954Z,4.91
2022-11-05T08:01:56.025Z,4.91
2022-11-05T08:02:55.845Z,4.99
2022-11-05T08:03:55.789Z,5.09
2022-11-05T08:04:55.727Z,5.12
2022-11-05T08:05:55.711Z,5.12
2022-11-05T08:06:55.720Z,5.12
2022-11-05T08:07:55.759Z,5.10
2022-11-05T08:08:55.677Z,5.07
2022-11-05T08:09:55.712Z,5.07
2022-11-05T08:10:55.689Z,5.09
2022-11-05T08:12:01.445Z,5.13
2022-11-05T08:12:56.625Z,5.16
2022-11-05T08:13:55.642Z,5.20
2022-11-05T08:14:55.671Z,5.25
2022-11-05T08:15:55.606Z,5.31
2022-11-05T08:16:56.821Z,5.37
2022-11-05T08:17:55.612Z,5.40
2022-11-05T08:18:55.628Z,5.46
2022-11-05T08:19:55.542Z,5.49
2022-11-05T08:20:55.519Z,5.52
2022-11-05T08:21:55.653Z,5.52
2022-11-05T08:22:55.541Z,5.66
2022-11-05T08:23:55.521Z,5.73
2022-11-05T08:24:55.460Z,5.75
2022-11-05T08:25:55.511Z,5.77
2022-11-05T08:26:55.481Z,5.82
2022-11-05T08:27:55.591Z,5.85
2022-11-05T08:28:55.632Z,5.91
2022-11-05T08:29:55.414Z,5.93
2022-11-05T08:30:55.471Z,5.96
2022-11-05T08:31:55.416Z,5.98
2022-11-05T08:32:55.401Z,5.98
2022-11-05T08:34:01.284Z,6.04
2022-11-05T08:34:56.393Z,6.09
2022-11-05T08:35:55.481Z,6.14
2022-11-05T08:36:56.431Z,6.21
2022-11-05T08:37:55.372Z,6.29
2022-11-05T08:38:55.372Z,6.33
2022-11-05T08:39:55.295Z,6.38
2022-11-05T08:40:55.335Z,6.40
2022-11-05T08:41:55.267Z,6.38
2022-11-05T08:42:55.236Z,6.40
2022-11-05T08:43:55.262Z,6.46
2022-11-05T08:44:55.234Z,6.47
2022-11-05T08:45:55.252Z,6.53
2022-11-05T08:46:55.840Z,6.62
2022-11-05T08:47:55.216Z,6.62
2022-11-05T08:48:55.177Z,6.63
2022-11-05T08:49:55.166Z,6.65
2022-11-05T08:50:55.158Z,6.66
2022-11-05T08:51:55.203Z,6.66
2022-11-05T08:52:55.105Z,6.66
2022-11-05T08:53:55.132Z,6.69
2022-11-05T08:54:55.115Z,6.77
2022-11-05T08:55:55.120Z,6.83
2022-11-05T08:56:55.165Z,6.89
2022-11-05T08:57:55.077Z,6.97
2022-11-05T08:58:55.046Z,6.99
2022-11-05T08:59:55.036Z,7.01
2022-11-05T09:00:59.008Z,7.05
2022-11-05T09:01:56.205Z,7.08
2022-11-05T09:02:54.984Z,7.13
2022-11-05T09:03:55.014Z,7.22
2022-11-05T09:04:54.957Z,7.26
2022-11-05T09:05:54.969Z,7.29
2022-11-05T09:06:55.596Z,7.34
2022-11-05T09:08:00.490Z,7.35
2022-11-05T09:08:55.943Z,7.37
2022-11-05T09:09:55.044Z,7.38
2022-11-05T09:10:54.980Z,7.40
2022-11-05T09:12:11.885Z,7.42
2022-11-05T09:12:55.906Z,7.45
2022-11-05T09:13:54.878Z,7.50
2022-11-05T09:14:54.828Z,7.53
2022-11-05T09:15:54.817Z,7.56
2022-11-05T09:16:55.547Z,7.60
2022-11-05T09:17:54.975Z,7.63
2022-11-05T09:18:54.808Z,7.67
2022-11-05T09:19:54.850Z,7.71
2022-11-05T09:20:54.779Z,7.74
2022-11-05T09:21:54.768Z,7.81
2022-11-05T09:22:54.757Z,7.82
2022-11-05T09:23:54.785Z,7.85
2022-11-05T09:24:54.739Z,7.89
2022-11-05T09:25:54.726Z,7.90
2022-11-05T09:26:54.928Z,7.96
2022-11-05T09:27:54.824Z,8.03
2022-11-05T09:28:54.748Z,8.12
2022-11-05T09:29:54.718Z,8.14
2022-11-05T09:30:54.649Z,8.20
2022-11-05T09:31:54.627Z,8.22
2022-11-05T09:32:54.651Z,8.29
2022-11-05T09:33:54.651Z,8.32
2022-11-05T09:34:54.598Z,8.39
2022-11-05T09:35:54.671Z,8.42
2022-11-05T09:36:54.657Z,8.47
2022-11-05T09:37:59.736Z,8.53
2022-11-05T09:38:55.543Z,8.54
2022-11-05T09:39:54.509Z,8.54
2022-11-05T09:40:54.521Z,8.58
2022-11-05T09:41:54.527Z,8.62
2022-11-05T09:42:54.479Z,8.65
2022-11-05T09:43:54.471Z,8.65
2022-11-05T09:44:54.523Z,8.65
2022-11-05T09:45:54.448Z,8.72
2022-11-05T09:46:54.641Z,8.84
2022-11-05T09:47:54.518Z,8.86
2022-11-05T09:48:54.390Z,8.91
2022-11-05T09:49:54.454Z,8.96
2022-11-05T09:50:54.443Z,9.01
2022-11-05T09:51:55.376Z,9.02
2022-11-05T09:52:54.451Z,9.06
2022-11-05T09:53:54.313Z,9.06
2022-11-05T09:54:54.343Z,9.04
2022-11-05T09:55:54.332Z,9.04
2022-11-05T09:56:54.605Z,9.06
2022-11-05T09:57:54.296Z,9.05
2022-11-05T09:58:54.272Z,9.13
2022-11-05T09:59:54.324Z,9.16
2022-11-05T10:00:54.338Z,9.20
2022-11-05T10:01:54.325Z,9.24
2022-11-05T10:02:54.226Z,9.30
2022-11-05T10:03:54.356Z,9.30
2022-11-05T10:04:54.329Z,9.31
2022-11-05T10:05:54.272Z,9.31
2022-11-05T10:06:54.966Z,9.34
2022-11-05T10:07:54.185Z,9.35
2022-11-05T10:08:54.196Z,9.35
2022-11-05T10:09:54.149Z,9.34
2022-11-05T10:10:54.187Z,9.34
2022-11-05T10:11:54.191Z,9.34
2022-11-05T10:12:54.106Z,9.35
2022-11-05T10:13:54.218Z,9.35
2022-11-05T10:14:54.096Z,9.38
2022-11-05T10:15:54.095Z,9.32
2022-11-05T10:16:55.025Z,9.34
2022-11-05T10:17:54.036Z,9.38
2022-11-05T10:18:54.039Z,9.40
2022-11-05T10:19:54.007Z,9.42
2022-11-05T10:20:54.005Z,9.42
2022-11-05T10:22:10.434Z,9.46
2022-11-05T10:22:55.002Z,9.52
2022-11-05T10:23:53.979Z,9.58
2022-11-05T10:24:53.918Z,9.64
2022-11-05T10:25:53.908Z,9.66
2022-11-05T10:26:54.043Z,9.68
2022-11-05T10:27:53.907Z,9.71
2022-11-05T10:28:54.617Z,9.75
2022-11-05T10:29:53.875Z,9.78
2022-11-05T10:30:53.873Z,9.81
2022-11-05T10:31:53.891Z,9.82
2022-11-05T10:32:53.851Z,9.83
2022-11-05T10:33:53.830Z,9.88
2022-11-05T10:34:53.789Z,9.91
2022-11-05T10:35:53.810Z,9.94
2022-11-05T10:36:54.640Z,9.94
2022-11-05T10:37:53.803Z,9.96
2022-11-05T10:38:53.839Z,9.96
2022-11-05T10:39:53.774Z,9.97
2022-11-05T10:40:53.741Z,9.94
2022-11-05T10:41:54.675Z,9.91
2022-11-05T10:42:53.739Z,9.91
2022-11-05T10:43:53.679Z,9.96
2022-11-05T10:44:53.665Z,9.93
2022-11-05T10:45:53.665Z,9.97
2022-11-05T10:46:53.653Z,10.00
2022-11-05T10:47:53.805Z,10.06
2022-11-05T10:48:53.674Z,10.10
2022-11-05T10:49:53.612Z,10.09
2022-11-05T10:50:53.614Z,10.09
2022-11-05T10:51:53.573Z,10.09
2022-11-05T10:52:53.633Z,10.14
2022-11-05T10:53:58.747Z,10.12
2022-11-05T10:54:54.565Z,10.18
2022-11-05T10:55:53.563Z,10.25
2022-11-05T10:56:53.723Z,10.32
2022-11-05T10:57:53.580Z,10.36
2022-11-05T10:58:53.495Z,10.43
2022-11-05T10:59:53.476Z,10.52
2022-11-05T11:00:53.615Z,10.56
2022-11-05T11:01:53.619Z,10.58
2022-11-05T11:02:53.437Z,10.59
2022-11-05T11:03:53.535Z,10.62
2022-11-05T11:04:53.444Z,10.63
2022-11-05T11:05:53.458Z,10.66
2022-11-05T11:06:53.423Z,10.68
2022-11-05T11:07:53.617Z,10.68
2022-11-05T11:08:53.391Z,10.63
2022-11-05T11:09:53.348Z,10.59
2022-11-05T11:10:53.370Z,10.53
2022-11-05T11:11:53.398Z,10.47
2022-11-05T11:12:53.318Z,10.43
2022-11-05T11:13:53.336Z,10.43
2022-11-05T11:14:53.295Z,10.40
2022-11-05T11:15:53.300Z,10.33
2022-11-05T11:16:53.285Z,10.34
2022-11-05T11:17:53.288Z,10.26
2022-11-05T11:18:53.228Z,10.24
2022-11-05T11:19:53.273Z,10.22
2022-11-05T11:20:53.231Z,10.24
2022-11-05T11:21:53.302Z,10.24
2022-11-05T11:22:53.189Z,10.18
2022-11-05T11:23:53.218Z,10.21
2022-11-05T11:24:53.198Z,10.15
2022-11-05T11:25:53.226Z,10.14
2022-11-05T11:26:54.112Z,10.09
2022-11-05T11:27:53.213Z,10.07
2022-11-05T11:28:53.270Z,10.03
2022-11-05T11:29:53.201Z,10.04
2022-11-05T11:30:53.109Z,10.01
2022-11-05T11:31:53.222Z,9.99
2022-11-05T11:32:53.072Z,9.94
2022-11-05T11:33:53.073Z,9.96
2022-11-05T11:34:53.051Z,9.96
2022-11-05T11:35:53.029Z,9.93
2022-11-05T11:36:53.025Z,9.91
2022-11-05T11:37:53.010Z,9.88
2022-11-05T11:38:52.981Z,9.83
2022-11-05T11:39:52.994Z,9.82
2022-11-05T11:40:52.975Z,9.81
2022-11-05T11:41:52.934Z,9.81
2022-11-05T11:42:52.923Z,9.81
2022-11-05T11:43:52.907Z,9.81
2022-11-05T11:44:52.932Z,9.82
2022-11-05T11:45:54.166Z,9.83
2022-11-05T11:46:52.937Z,9.85
2022-11-05T11:47:52.913Z,9.85
2022-11-05T11:48:52.871Z,9.82
2022-11-05T11:49:52.867Z,9.85
2022-11-05T11:50:52.844Z,9.93
2022-11-05T11:51:52.836Z,10.00
2022-11-05T11:52:52.847Z,10.06
2022-11-05T11:53:52.806Z,10.10
2022-11-05T11:54:52.763Z,10.19
2022-11-05T11:55:52.769Z,10.24
2022-11-05T11:56:53.617Z,10.28
2022-11-05T11:57:52.818Z,10.30
2022-11-05T11:58:52.791Z,10.34
2022-11-05T12:00:08.196Z,10.39
2022-11-05T12:00:53.748Z,10.40
2022-11-05T12:01:52.831Z,10.42
2022-11-05T12:02:56.002Z,10.43
2022-11-05T12:03:53.648Z,10.44
2022-11-05T12:04:52.651Z,10.46
2022-11-05T12:05:52.673Z,10.43
2022-11-05T12:06:52.699Z,10.44
2022-11-05T12:07:52.653Z,10.42
2022-11-05T12:09:00.549Z,10.40
2022-11-05T12:09:53.594Z,10.39
2022-11-05T12:10:52.587Z,10.36
2022-11-05T12:11:52.590Z,10.36
2022-11-05T12:12:52.537Z,10.43
2022-11-05T12:13:52.560Z,10.46
2022-11-05T12:14:53.429Z,10.51
2022-11-05T12:15:52.535Z,10.51
2022-11-05T12:16:52.531Z,10.52
2022-11-05T12:17:52.490Z,10.53
2022-11-05T12:18:52.492Z,10.56
2022-11-05T12:19:52.463Z,10.55
2022-11-05T12:20:58.041Z,10.53
2022-11-05T12:21:53.694Z,10.44
2022-11-05T12:22:53.249Z,10.40
2022-11-05T12:23:53.581Z,10.42
2022-11-05T12:24:52.520Z,10.43
2022-11-05T12:25:52.390Z,10.43
2022-11-05T12:26:53.372Z,10.46
2022-11-05T12:27:52.374Z,10.53
2022-11-05T12:29:17.218Z,10.60
2022-11-05T12:29:53.327Z,10.62
2022-11-05T12:30:52.340Z,10.66
2022-11-05T12:31:52.401Z,10.71
2022-11-05T12:32:52.432Z,10.68
2022-11-05T12:33:52.292Z,10.68
2022-11-05T12:34:52.281Z,10.66
2022-11-05T12:35:57.625Z,10.70
2022-11-05T12:36:53.345Z,10.74
2022-11-05T12:37:52.234Z,10.77
2022-11-05T12:38:52.205Z,10.86
2022-11-05T12:39:52.253Z,10.92
2022-11-05T12:40:52.302Z,10.99
2022-11-05T12:41:52.230Z,11.02
2022-11-05T12:42:52.810Z,11.06
2022-11-05T12:43:52.148Z,11.10
2022-11-05T12:44:52.157Z,11.11
2022-11-05T12:45:52.112Z,11.13
2022-11-05T12:46:52.273Z,11.17
2022-11-05T12:47:52.130Z,11.21
2022-11-05T12:48:52.594Z,11.32
2022-11-05T12:49:53.141Z,11.41
2022-11-05T12:50:52.057Z,11.49
2022-11-05T12:51:52.078Z,11.53
2022-11-05T12:52:52.085Z,11.53
2022-11-05T12:53:52.009Z,11.57
2022-11-05T12:54:52.008Z,11.62
2022-11-05T12:55:51.987Z,11.67
2022-11-05T12:56:52.086Z,11.71
2022-11-05T12:57:52.040Z,11.77
2022-11-05T12:58:51.948Z,11.80
2022-11-05T12:59:51.941Z,11.86
2022-11-05T13:00:51.950Z,11.89
2022-11-05T13:01:52.034Z,11.90
2022-11-05T13:02:52.167Z,11.86
2022-11-05T13:03:51.898Z,11.80
2022-11-05T13:04:51.919Z,11.75
2022-11-05T13:05:51.859Z,11.67
2022-11-05T13:06:53.040Z,11.61
2022-11-05T13:07:51.887Z,11.57
2022-11-05T13:08:51.882Z,11.53
2022-11-05T13:09:51.811Z,11.50
2022-11-05T13:10:51.865Z,11.49
2022-11-05T13:11:51.822Z,11.44
2022-11-05T13:12:51.829Z,11.43
2022-11-05T13:13:52.642Z,11.43
2022-11-05T13:14:52.761Z,11.39
2022-11-05T13:15:51.765Z,11.36